Latest Weather Observations for Mildura

IDV60801

Issued at 2:02 pm EDT Tuesday 28 February 2017 (issued every 30 minutes, with the page automatically refreshed every 10 minutes)

About weather observations | Map of weather stations | Latest weather observations for VIC | Other Formats
Station Details ID: 076031 Name: MILDURA AIRPORT Lat: -34.24 Lon: 142.09 Height: 50.0 m
Data from the previous 72 hours. | See also: Recent months at Mildura
Date/Time
EDT
Temp
°C
App
Temp
°C
Dew
Point
°C
Rel
Hum
%
Delta-T
°C
Wind Press
QNH
hPa
Press
MSL
hPa
Rain since
9am
mm
Dir  Spd
km/h
Gust
km/h
Spd
kts
Gust
kts
28/02:00pm 35.3 31.5 5.7 16 16.0 NNE 15 24 8 13 1017.5 1017.3 0.0
28/01:30pm 34.6 31.4 6.8 18 15.3 E 13 22 7 12 1018.0 1017.7 0.0
28/01:00pm 33.8 31.4 7.0 19 14.7 NNW 9 17 5 9 1018.3 1018.0 0.0
28/12:30pm 33.2 29.5 7.9 21 14.1 NE 17 26 9 14 1018.7 1018.4 0.0
28/12:00pm 32.9 30.2 9.0 23 13.5 NNE 13 22 7 12 1019.0 1018.7 0.0
28/11:30am 31.7 28.3 9.3 25 12.6 NNE 17 26 9 14 1019.2 1018.9 0.0
28/11:00am 30.4 27.3 8.7 26 12.0 NNE 15 20 8 11 1019.3 1019.0 0.0
28/10:30am 28.9 26.2 9.1 29 11.0 ENE 13 17 7 9 1019.3 1019.0 0.0
28/10:00am 27.2 24.2 9.1 32 9.9 ENE 15 20 8 11 1019.3 1019.0 0.0
28/09:30am 25.9 23.5 8.8 34 9.3 NE 11 17 6 9 1019.3 1019.0 0.0
28/09:00am 24.0 22.4 8.0 36 8.5 E 6 9 3 5 1019.2 1018.9 0.0
28/08:30am 21.7 20.0 8.2 42 7.1 SE 7 9 4 5 1019.0 1018.7 0.0
28/08:00am 20.0 18.2 8.0 46 6.2 ESE 7 9 4 5 1018.8 1018.5 0.0
28/07:30am 18.7 16.9 7.8 49 5.6 E 7 9 4 5 1018.5 1018.2 0.0
28/07:00am 18.6 16.4 8.0 50 5.4 E 9 11 5 6 1018.2 1017.9 0.0
28/06:30am 18.8 17.0 7.9 49 5.6 E 7 9 4 5 1018.0 1017.7 0.0
28/06:00am 18.2 16.4 7.3 49 5.5 ESE 6 7 3 4 1017.8 1017.5 0.0
28/05:30am 19.1 17.2 6.9 45 6.1 ESE 6 7 3 4 1017.5 1017.3 0.0
28/05:00am 20.1 18.1 7.1 43 6.6 E 7 9 4 5 1017.3 1017.1 0.0
28/04:30am 20.2 17.8 6.9 42 6.8 ESE 9 11 5 6 1017.4 1017.2 0.0
28/04:00am 20.3 17.9 7.0 42 6.8 ESE 9 13 5 7 1017.5 1017.3 0.0
28/03:30am 20.8 18.3 6.4 39 7.3 ESE 9 13 5 7 1017.7 1017.4 0.0
28/03:00am 21.7 18.7 6.0 36 7.9 E 11 15 6 8 1017.7 1017.4 0.0
28/02:30am 21.8 18.9 6.5 37 7.8 E 11 15 6 8 1018.0 1017.7 0.0
28/02:00am 22.3 19.8 6.5 36 8.1 ESE 9 13 5 7 1018.1 1017.8 0.0
28/01:30am 23.0 20.4 6.3 34 8.5 E 9 13 5 7 1018.1 1017.8 0.0
28/01:00am 23.6 20.7 6.4 33 8.8 ESE 11 13 6 7 1018.1 1017.8 0.0
28/12:30am 24.0 21.5 6.7 33 9.0 ESE 9 13 5 7 1018.1 1017.8 0.0
28/12:00am 25.2 22.7 6.4 30 9.7 E 9 13 5 7 1017.8 1017.5 0.0
 
Date/Time
EDT
Temp
°C
App
Temp
°C
Dew
Point
°C
Rel
Hum
%
Delta-T
°C
Wind Press
QNH
hPa
Press
MSL
hPa
Rain since
9am
mm
Dir  Spd
km/h
Gust
km/h
Spd
kts
Gust
kts
27/11:30pm 25.8 22.9 6.4 29 10.1 E 11 15 6 8 1017.9 1017.6 0.0
27/11:00pm 25.9 23.2 7.5 31 9.8 E 11 13 6 7 1017.9 1017.6 0.0
27/10:30pm 27.3 24.4 6.7 27 10.9 E 11 15 6 8 1017.8 1017.5 0.0
27/10:00pm 27.9 25.2 7.2 27 11.0 ESE 11 15 6 8 1017.4 1017.2 0.0
27/09:30pm 28.5 25.9 7.7 27 11.3 ESE 11 15 6 8 1017.1 1016.9 0.0
27/09:00pm 29.1 26.6 8.2 27 11.4 ESE 11 15 6 8 1016.8 1016.6 0.0
27/08:30pm 30.5 27.6 8.3 25 12.3 ESE 13 17 7 9 1016.4 1016.2 0.0
27/08:00pm 32.0 29.3 8.9 24 13.0 ESE 13 17 7 9 1016.2 1016.0 0.0
27/07:30pm 33.8 30.6 8.4 21 14.3 ESE 15 22 8 12 1015.8 1015.6 0.0
27/07:00pm 34.7 31.1 8.4 20 14.8 E 17 24 9 13 1015.5 1015.3 0.0
27/06:30pm 35.1 32.0 8.8 20 15.0 E 15 22 8 12 1015.4 1015.2 0.0
27/06:00pm 35.1 32.0 8.8 20 15.0 ESE 15 24 8 13 1015.4 1015.2 0.0
27/05:30pm 35.1 31.6 8.8 20 15.0 ESE 17 24 9 13 1015.4 1015.2 0.0
27/05:00pm 35.7 32.3 9.3 20 15.2 E 17 30 9 16 1015.6 1015.4 0.0
27/04:30pm 35.6 32.4 9.9 21 14.9 ENE 17 26 9 14 1015.8 1015.6 0.0
27/04:00pm 35.2 32.7 9.6 21 14.7 SE 13 24 7 13 1016.1 1015.9 0.0
27/03:30pm 35.9 33.9 10.2 21 15.0 SE 11 20 6 11 1016.4 1016.2 0.0
27/03:00pm 34.1 31.3 10.0 23 13.9 NE 15 24 8 13 1016.8 1016.6 0.0
27/02:30pm 35.6 33.5 11.3 23 14.4 E 13 32 7 17 1017.2 1017.0 0.0
27/02:00pm 33.1 29.8 11.0 26 12.9 E 19 30 10 16 1017.7 1017.4 0.0
27/01:30pm 34.2 31.2 10.7 24 13.7 ENE 17 30 9 16 1017.9 1017.6 0.0
27/01:00pm 34.1 30.9 11.3 25 13.4 E 19 30 10 16 1018.2 1017.9 0.0
27/12:30pm 33.7 30.6 11.5 26 13.1 ENE 19 26 10 14 1018.5 1018.2 0.0
27/12:00pm 32.7 29.5 11.3 27 12.5 ENE 19 30 10 16 1018.8 1018.5 0.0
27/11:30am 31.8 28.5 11.0 28 12.1 ENE 19 28 10 15 1018.9 1018.6 0.0
27/11:00am 30.4 25.8 10.9 30 11.2 NE 26 35 14 19 1019.0 1018.7 0.0
27/10:30am 30.0 26.2 11.0 31 10.9 ENE 22 30 12 16 1019.2 1018.9 0.0
27/10:00am 28.2 24.3 10.9 34 9.8 ENE 22 32 12 17 1019.0 1018.7 0.0
27/09:30am 27.2 23.2 10.4 35 9.4 ENE 22 32 12 17 1019.0 1018.7 0.0
27/09:00am 25.4 22.6 10.1 38 8.5 ENE 15 22 8 12 1018.9 1018.6 0.0
27/08:30am 23.7 21.9 10.7 44 7.2 ENE 11 13 6 7 1018.7 1018.4 0.0
27/08:00am 22.3 20.3 10.1 46 6.6 E 11 15 6 8 1018.3 1018.0 0.0
27/07:30am 21.3 19.2 9.9 48 6.2 E 11 15 6 8 1018.1 1017.8 0.0
27/07:00am 21.4 19.3 9.9 48 6.2 E 11 15 6 8 1017.8 1017.5 0.0
27/06:30am 21.3 19.2 9.9 48 6.2 E 11 15 6 8 1017.4 1017.2 0.0
27/06:00am 21.7 19.3 9.9 47 6.4 E 13 17 7 9 1017.2 1017.0 0.0
27/05:30am 22.4 19.9 9.6 44 6.9 ESE 13 17 7 9 1016.9 1016.7 0.0
27/05:00am 22.8 20.3 9.6 43 7.1 E 13 17 7 9 1016.7 1016.5 0.0
27/04:30am 22.8 20.4 9.9 44 7.0 ESE 13 19 7 10 1016.6 1016.4 0.0
27/04:00am 21.5 19.4 9.7 47 6.4 ESE 11 15 6 8 1016.5 1016.3 0.0
27/03:30am 21.8 20.1 10.0 47 6.4 SE 9 13 5 7 1016.6 1016.4 0.0
27/03:00am 21.4 20.1 9.9 48 6.2 SE 7 11 4 6 1016.8 1016.6 0.0
27/02:30am 21.9 20.6 9.8 46 6.6 SSE 7 9 4 5 1016.8 1016.6 0.0
27/02:00am 22.4 20.9 9.2 43 7.1 SE 7 9 4 5 1016.8 1016.6 0.0
27/01:30am 23.4 21.3 8.3 38 8.0 SSE 9 13 5 7 1016.8 1016.6 0.0
27/01:00am 23.9 21.4 8.3 37 8.3 S 11 13 6 7 1016.7 1016.5 0.0
27/12:30am 24.7 22.2 8.2 35 8.8 S 11 17 6 9 1016.7 1016.5 0.0
27/12:00am 25.5 22.6 8.1 33 9.3 S 13 20 7 11 1016.6 1016.4 0.0
 
Date/Time
EDT
Temp
°C
App
Temp
°C
Dew
Point
°C
Rel
Hum
%
Delta-T
°C
Wind Press
QNH
hPa
Press
MSL
hPa
Rain since
9am
mm
Dir  Spd
km/h
Gust
km/h
Spd
kts
Gust
kts
26/11:30pm 25.4 22.9 8.4 34 9.2 S 11 17 6 9 1016.6 1016.4 0.0
26/11:00pm 25.3 22.7 7.9 33 9.3 SSW 11 15 6 8 1016.7 1016.5 0.0
26/10:30pm 25.5 23.4 8.1 33 9.3 SSW 9 11 5 6 1016.5 1016.3 0.0
26/10:00pm 26.0 23.7 7.6 31 9.8 SSW 9 11 5 6 1016.2 1016.0 0.0
26/09:30pm 26.7 24.8 7.7 30 10.2 SSW 7 9 4 5 1016.0 1015.8 0.0
26/09:00pm 27.3 25.2 8.2 30 10.3 SSW 9 11 5 6 1015.7 1015.5 0.0
26/08:30pm 28.6 26.4 7.8 27 11.3 SSW 9 11 5 6 1015.3 1015.1 0.0
26/08:00pm 30.1 27.5 7.9 25 12.1 S 11 17 6 9 1015.2 1015.0 0.0
26/07:30pm 30.8 28.5 9.1 26 12.2 S 11 19 6 10 1015.1 1014.9 0.0
26/07:00pm 31.1 28.2 8.2 24 12.7 SSE 13 19 7 10 1015.0 1014.8 0.0
26/06:30pm 31.6 29.4 8.0 23 13.0 SSE 9 19 5 10 1015.1 1014.9 0.0
26/06:00pm 31.2 28.2 7.6 23 12.9 SE 13 22 7 12 1015.1 1014.9 0.0
26/05:30pm 30.8 27.8 6.0 21 13.2 SE 11 17 6 9 1015.1 1014.9 0.0
26/05:00pm 30.7 27.7 5.9 21 13.2 SE 11 22 6 12 1015.5 1015.3 0.0
26/04:30pm 30.6 28.2 5.1 20 13.4 SE 7 17 4 9 1015.7 1015.5 0.0
26/04:00pm 30.1 27.2 4.7 20 13.2 SE 9 20 5 11 1016.0 1015.8 0.0
26/03:30pm 29.8 26.5 4.4 20 13.1 ESE 11 20 6 11 1016.3 1016.1 0.0
26/03:00pm 29.4 26.5 4.8 21 12.7 ENE 9 15 5 8 1016.6 1016.4 0.0
26/02:30pm 28.4 25.0 4.0 21 12.4 E 11 20 6 11 1016.9 1016.7 0.0
26/02:00pm 27.8 24.3 3.5 21 12.2 SE 11 17 6 9 1017.3 1017.1 0.0
26/01:30pm 26.7 23.5 3.2 22 11.6 E 9 15 5 8 1017.8 1017.5 0.0
26/01:00pm 25.4 22.5 4.5 26 10.5 S 9 19 5 10 1018.3 1018.0 0.0
26/12:30pm 24.7 21.6 5.5 29 9.8 S 11 20 6 11 1018.7 1018.4 0.0
26/12:00pm 23.8 20.4 6.1 32 9.0 S 13 20 7 11 1019.0 1018.7 0.0
26/11:30am 22.4 19.9 6.6 36 8.1 S 9 15 5 8 1019.2 1018.9 0.0
26/11:00am 21.3 19.4 8.9 45 6.6 SSE 9 13 5 7 1019.3 1019.0 0.0
26/10:30am 20.5 18.2 9.1 48 6.0 SE 11 17 6 9 1019.5 1019.2 0.0
26/10:00am 17.9 15.5 8.7 55 4.8 SSE 11 17 6 9 1019.5 1019.2 0.0
26/09:30am 16.2 13.4 8.4 60 4.0 SSE 13 17 7 9 1019.6 1019.3 0.0
26/09:00am 14.4 10.7 7.9 65 3.2 SE 17 24 9 13 1019.5 1019.2 0.0
26/08:30am 13.5 10.1 7.5 67 2.9 SSE 15 22 8 12 1019.5 1019.2 0.0
26/08:00am 12.2 9.1 7.3 72 2.4 S 13 20 7 11 1019.1 1018.8 0.0
26/07:30am 11.7 8.6 7.2 74 2.2 S 13 22 7 12 1019.1 1018.8 0.0
26/07:00am 11.8 9.0 7.1 73 2.3 S 11 17 6 9 1018.9 1018.6 0.0
26/06:30am 12.1 8.9 6.8 70 2.5 SSE 13 20 7 11 1018.8 1018.5 0.0
26/06:00am 12.3 9.0 6.4 67 2.8 S 13 19 7 10 1018.5 1018.2 0.0
26/05:30am 12.8 9.5 6.2 64 3.1 S 13 17 7 9 1018.3 1018.0 0.0
26/05:00am 13.3 9.9 5.9 61 3.5 S 13 19 7 10 1018.1 1017.8 0.0
26/04:30am 13.7 10.6 5.6 58 3.8 S 11 17 6 9 1018.1 1017.8 0.0
26/04:00am 14.3 10.7 5.1 54 4.3 S 13 19 7 10 1018.3 1018.0 0.0
26/03:30am 15.0 11.0 5.0 51 4.7 S 15 20 8 11 1018.3 1018.0 0.0
26/03:00am 15.7 11.6 4.4 47 5.3 S 15 24 8 13 1018.5 1018.2 0.0
26/02:30am 16.2 12.0 3.6 43 5.8 SSE 15 20 8 11 1018.6 1018.3 0.0
26/02:00am 16.6 12.2 2.6 39 6.3 S 15 22 8 12 1018.6 1018.3 0.0
26/01:30am 16.9 12.7 1.4 35 6.9 S 13 22 7 12 1018.9 1018.6 0.0
26/01:00am 17.4 13.4 0.6 32 7.3 S 11 19 6 10 1018.9 1018.6 0.0
26/12:30am 17.8 14.2 0.5 31 7.6 S 9 15 5 8 1018.9 1018.6 0.0
26/12:00am 18.7 15.1 0.3 29 8.1 S 9 15 5 8 1019.1 1018.8 0.0
 
Date/Time
EDT
Temp
°C
App
Temp
°C
Dew
Point
°C
Rel
Hum
%
Delta-T
°C
Wind Press
QNH
hPa
Press
MSL
hPa
Rain since
9am
mm
Dir  Spd
km/h
Gust
km/h
Spd
kts
Gust
kts
25/11:30pm 19.5 15.4 0.0 27 8.6 S 11 15 6 8 1019.1 1018.8 0.0
25/11:00pm 20.6 17.0 0.4 26 9.0 S 9 17 5 9 1019.0 1018.7 0.0
25/10:30pm 21.0 17.3 0.2 25 9.3 S 9 15 5 8 1019.0 1018.7 0.0
25/10:00pm 21.9 17.9 0.4 24 9.7 SSE 11 17 6 9 1018.9 1018.6 0.0
25/09:30pm 22.4 18.1 0.9 24 9.9 S 13 19 7 10 1018.7 1018.4 0.0
25/09:00pm 23.0 19.4 0.8 23 10.2 SSE 9 15 5 8 1018.5 1018.2 0.0
25/08:30pm 24.3 20.0 1.2 22 10.8 S 13 22 7 12 1018.5 1018.2 0.0
25/08:00pm 25.1 20.4 0.6 20 11.4 S 15 24 8 13 1018.2 1017.9 0.0
25/07:30pm 26.4 20.9 0.9 19 12.1 SSE 19 26 10 14 1018.0 1017.7 0.0
25/07:00pm 27.0 21.5 0.7 18 12.4 S 19 30 10 16 1017.9 1017.6 0.0
25/06:30pm 27.5 22.0 0.3 17 12.8 S 19 35 10 19 1017.9 1017.6 0.0
25/06:00pm 27.7 22.7 1.2 18 12.7 S 17 26 9 14 1017.9 1017.6 0.0
25/05:30pm 27.9 22.5 1.4 18 12.8 SSE 19 26 10 14 1018.1 1017.8 0.0
25/05:00pm 27.0 21.4 1.4 19 12.3 S 20 33 11 18 1018.3 1018.0 0.0
25/04:30pm 28.1 23.0 3.0 20 12.5 S 19 32 10 17 1018.7 1018.4 0.0
25/04:00pm 27.5 22.8 3.2 21 12.1 S 17 26 9 14 1019.0 1018.7 0.0
25/03:30pm 26.3 21.8 4.1 24 11.1 S 17 26 9 14 1019.4 1019.1 0.0
25/03:00pm 26.5 22.4 4.3 24 11.2 S 15 22 8 12 1020.1 1019.8 0.0
25/02:30pm 25.4 20.4 4.5 26 10.5 SSE 20 35 11 19 1020.6 1020.3 0.0

Other Formats:

Comma delimited format used in spreadsheet applications
http://www.bom.gov.au/fwo/IDV60801/IDV60801.94693.axf

JavaScript Object Notation format (JSON) in row-major order
http://www.bom.gov.au/fwo/IDV60801/IDV60801.94693.json